MSC Suez — HPMS — position and weather

sailwx.info

Track history (hours):
 
Tides and Currents Weather Stations Pressure Air Temp Water Temp Dewpoint Dewpoint Depression Visibility Wind Speed Wind Dir Waves Ship Positions

MSC Suez

Last reported at 2015-May-27 01:34 UTC. Time now 2015-May-27 01:49 UTC.
Position N 60°01' E 029°28'.

Length 237 m; draft 9.2 m.

Type: Cargo ship. MMSI: 355289000.

Date/timePositionNaut miles runAvg speedWind from/ knotsBaromVisibWave heightAir tempDewpointWater temp
2015-May-27 01:34N 60°01' E 029°28'6 6.2
2015-May-27 00:33N 60°01' E 029°16'9 8.1
2015-May-26 23:30N 60°02' E 028°59'5713.6
2015-May-26 19:19N 59°59' E 027°05'1216.2
2015-May-26 18:33N 59°59' E 026°40'1716.6
2015-May-26 17:33N 59°55' E 026°08'3316.7
2015-May-26 15:33N 59°48' E 025°03'1716.8
2015-May-26 14:33N 59°44' E 024°31'3316.5
2015-May-26 12:33N 59°34' E 023°28'3715.4
2015-May-26 10:10N 59°20' E 022°22'911.4
2015-May-26 09:23N 59°14' E 022°08'28514.4
2015-May-25 13:33N 55°49' E 016°01'1414.3
2015-May-25 12:33N 55°42' E 015°39'1616.5
2015-May-25 11:33N 55°33' E 015°14'1716.5
2015-May-25 10:33N 55°26' E 014°48'1615.9
2015-May-25 09:33N 55°15' E 014°28'1616.4
2015-May-25 08:33N 55°02' E 014°10'1916.3
2015-May-25 07:22N 54°56' E 013°38'1417.2
2015-May-25 06:33N 54°51' E 013°15'1717.4
2015-May-25 05:33N 54°45' E 012°47'1818.0
2015-May-25 04:33N 54°36' E 012°20'1514.8
2015-May-25 03:33N 54°24' E 012°04'1716.7
2015-May-25 02:33N 54°28' E 011°36'1616.2
2015-May-25 01:33N 54°35' E 011°11'1414.0
2015-May-25 00:33N 54°44' E 010°52'1010.4
2015-May-24 23:33N 54°54' E 010°54'10913.7
2015-May-24 15:33N 56°40' E 011°46'1514.8
2015-May-24 14:34N 56°54' E 011°47'1616.2
2015-May-24 13:33N 57°10' E 011°36'1616.5
2015-May-24 12:33N 57°25' E 011°26'1717.0
2015-May-24 11:34N 57°37' E 011°04'1716.8
2015-May-24 10:33N 57°48' E 010°40'1817.6
2015-May-24 09:34N 57°45' E 010°07'1717.3
2015-May-24 08:33N 57°41' E 009°35'4018.3
2015-May-24 06:24N 57°21' E 008°32'1417.2
2015-May-24 05:34N 57°10' E 008°14'9915.9
2015-May-23 23:20N 55°46' E 006°39'1216.1
2015-May-23 22:34N 55°36' E 006°27'1816.0
2015-May-23 21:25N 55°20' E 006°11'6315.8
2015-May-23 17:25N 54°26' E 005°15'1315.4
2015-May-23 16:33N 54°14' E 005°03'1515.3
2015-May-23 15:33N 53°60' E 004°55'1615.6
2015-May-23 14:33N 53°45' E 004°51'1515.3
2015-May-23 13:34N 53°30' E 004°45'1615.5
2015-May-23 12:33N 53°15' E 004°35'1515.4
2015-May-23 11:33N 53°02' E 004°22'1615.6
2015-May-23 10:34N 52°48' E 004°10'1615.8
2015-May-23 09:34N 52°34' E 003°58'1615.7
2015-May-23 08:33N 52°19' E 003°52'1616.0
2015-May-23 07:33N 52°03' E 003°54'8 7.9
2015-May-23 06:34N 51°58' E 004°03'1 1.2
2015-May-23 05:31N 51°59' E 004°02'0 0.0
2015-May-23 04:31N 51°59' E 004°02'0 0.0
2015-May-23 03:31N 51°59' E 004°02'0 0.0
2015-May-23 02:31N 51°59' E 004°02'0 0.0
2015-May-23 01:31N 51°59' E 004°02'0 0.0
2015-May-23 00:31N 51°59' E 004°02'0 0.0
2015-May-22 23:31N 51°59' E 004°02'0 0.0
2015-May-22 22:31N 51°59' E 004°02'2 1.7
2015-May-22 21:32N 51°58' E 004°04'0 0.0
2015-May-22 20:32N 51°58' E 004°04'0 0.0
2015-May-22 19:33N 51°58' E 004°04'0 0.0
2015-May-22 18:33N 51°58' E 004°04'0 0.0
2015-May-22 17:33N 51°58' E 004°04'0 0.0
2015-May-22 16:33N 51°58' E 004°04'0 0.0
2015-May-22 15:31N 51°58' E 004°04'0 0.0
2015-May-22 14:31N 51°58' E 004°04'0 0.0
2015-May-22 13:31N 51°58' E 004°04'0 0.0
2015-May-22 12:31N 51°58' E 004°04'0 0.0
2015-May-22 11:31N 51°58' E 004°04'1 0.6
2015-May-22 10:33N 51°58' E 004°05'1010.0
2015-May-22 09:33N 51°60' E 003°49'4 4.0
2015-May-22 08:33N 51°57' E 003°44'0 0.1
2015-May-22 07:33N 51°57' E 003°44'0 0.0
2015-May-22 06:33N 51°57' E 003°44'7 7.0
2015-May-22 05:33N 51°57' E 003°33'1212.2
2015-May-22 04:33N 51°48' E 003°18'1414.3
2015-May-22 03:33N 51°35' E 003°10'1111.2
2015-May-22 02:33N 51°24' E 003°07'1312.9
2015-May-22 01:34N 51°25' E 003°28'9 9.0
2015-May-22 00:34N 51°25' E 003°42'10 9.7
2015-May-21 23:33N 51°24' E 003°57'10 9.6
2015-May-21 22:33N 51°23' E 004°13'4 3.9
2015-May-21 21:33N 51°21' E 004°17'1 1.4
2015-May-21 20:33N 51°20' E 004°19'1 1.0
2015-May-21 19:32N 51°20' E 004°20'0 0.0
2015-May-21 18:33N 51°20' E 004°20'0 0.0
2015-May-21 17:33N 51°20' E 004°20'0 0.0
2015-May-21 16:33N 51°20' E 004°20'0 0.0
2015-May-21 15:33N 51°20' E 004°20'0 0.0
2015-May-21 14:33N 51°20' E 004°20'0 0.0
2015-May-21 13:33N 51°20' E 004°20'0 0.0
2015-May-21 12:33N 51°20' E 004°20'0 0.0
2015-May-21 11:33N 51°20' E 004°20'0 0.0
2015-May-21 10:33N 51°20' E 004°20'0 0.0
2015-May-21 09:33N 51°20' E 004°20'0 0.0
2015-May-21 08:33N 51°20' E 004°20'0 0.0
2015-May-21 07:33N 51°20' E 004°20'0 0.0
2015-May-21 06:33N 51°20' E 004°20'0 0.0
2015-May-21 05:33N 51°20' E 004°20'0 0.0
2015-May-21 04:33N 51°20' E 004°20'0 0.0
2015-May-21 03:33N 51°20' E 004°20'0 0.0
2015-May-21 02:33N 51°20' E 004°20'0 0.0
2015-May-21 01:33N 51°20' E 004°20'0 0.0
2015-May-21 00:33N 51°20' E 004°20'0 0.0
2015-May-20 23:33N 51°20' E 004°20'0 0.0
2015-May-20 22:33N 51°20' E 004°20'2 2.2
2015-May-20 21:33N 51°21' E 004°17'0 0.2
2015-May-20 20:34N 51°21' E 004°17'4 4.4
2015-May-20 19:34N 51°24' E 004°12'9 8.9
2015-May-20 18:33N 51°25' E 003°58'10 9.5
2015-May-20 17:34N 51°24' E 003°43'7 7.0
2015-May-20 16:34N 51°25' E 003°31'1211.9
2015-May-20 15:33N 51°24' E 003°12'1716.9
2015-May-20 14:34N 51°22' E 002°46'8 8.1
2015-May-20 13:34N 51°22' E 002°33'8 7.8
2015-May-20 12:34N 51°19' E 002°21'7 6.6
2015-May-20 11:33N 51°16' E 002°12'1616.0
2015-May-20 10:33N 51°09' E 001°49'1514.5
2015-May-20 09:33N 50°58' E 001°33'1413.8
2015-May-20 08:33N 50°46' E 001°23'  
2015-May-17 20:30N 39°23' W 009°50'20452155.9
2015-May-17 19:33N 39°08' W 053°51'20522055.7
2015-May-17 18:33N 38°53' W 009°51'1514.8
2015-May-17 17:33N 38°38' W 009°50'1515.4
2015-May-17 16:33N 38°23' W 009°50'1414.4
2015-May-17 15:33N 38°08' W 009°52'1111.3
2015-May-17 14:32N 37°57' W 009°52'1110.9
2015-May-17 13:33N 37°46' W 009°53'1010.4
2015-May-17 12:33N 37°36' W 009°53'1110.9
2015-May-17 11:33N 37°25' W 009°54'1110.8
2015-May-17 10:33N 37°14' W 009°54'1110.9
2015-May-17 09:33N 37°03' W 009°55'1211.4
2015-May-17 08:33N 36°52' W 009°56'1615.6
2015-May-17 07:32N 36°36' W 009°56'1717.1
2015-May-17 06:33N 36°19' W 009°57'1615.9
2015-May-17 05:33N 36°04' W 009°58'1815.8
2015-May-17 04:26N 35°46' W 009°58'1415.7
2015-May-17 03:31N 35°31' W 009°59'  
Track history (hours):
 
Tides and Currents Weather Stations Pressure Air Temp Water Temp Dewpoint Dewpoint Depression Visibility Wind Speed Wind Dir Waves Ship Positions

MSC Suez

Last reported at 2015-May-27 01:34 UTC. Time now 2015-May-27 01:49 UTC.
Position N 60°01' E 029°28'.

Length 237 m; draft 9.2 m.

Type: Cargo ship. MMSI: 355289000.

Date/timePositionNaut miles runAvg speedWind from/ knotsBaromVisibWave heightAir tempDewpointWater temp
2015-May-27 01:34N 60°01' E 029°28'6 6.2
2015-May-27 00:33N 60°01' E 029°16'9 8.1
2015-May-26 23:30N 60°02' E 028°59'5713.6
2015-May-26 19:19N 59°59' E 027°05'1216.2
2015-May-26 18:33N 59°59' E 026°40'1716.6
2015-May-26 17:33N 59°55' E 026°08'3316.7
2015-May-26 15:33N 59°48' E 025°03'1716.8
2015-May-26 14:33N 59°44' E 024°31'3316.5
2015-May-26 12:33N 59°34' E 023°28'3715.4
2015-May-26 10:10N 59°20' E 022°22'911.4
2015-May-26 09:23N 59°14' E 022°08'28514.4
2015-May-25 13:33N 55°49' E 016°01'1414.3
2015-May-25 12:33N 55°42' E 015°39'1616.5
2015-May-25 11:33N 55°33' E 015°14'1716.5
2015-May-25 10:33N 55°26' E 014°48'1615.9
2015-May-25 09:33N 55°15' E 014°28'1616.4
2015-May-25 08:33N 55°02' E 014°10'1916.3
2015-May-25 07:22N 54°56' E 013°38'1417.2
2015-May-25 06:33N 54°51' E 013°15'1717.4
2015-May-25 05:33N 54°45' E 012°47'1818.0
2015-May-25 04:33N 54°36' E 012°20'1514.8
2015-May-25 03:33N 54°24' E 012°04'1716.7
2015-May-25 02:33N 54°28' E 011°36'1616.2
2015-May-25 01:33N 54°35' E 011°11'1414.0
2015-May-25 00:33N 54°44' E 010°52'1010.4
2015-May-24 23:33N 54°54' E 010°54'10913.7
2015-May-24 15:33N 56°40' E 011°46'1514.8
2015-May-24 14:34N 56°54' E 011°47'1616.2
2015-May-24 13:33N 57°10' E 011°36'1616.5
2015-May-24 12:33N 57°25' E 011°26'1717.0
2015-May-24 11:34N 57°37' E 011°04'1716.8
2015-May-24 10:33N 57°48' E 010°40'1817.6
2015-May-24 09:34N 57°45' E 010°07'1717.3
2015-May-24 08:33N 57°41' E 009°35'4018.3
2015-May-24 06:24N 57°21' E 008°32'1417.2
2015-May-24 05:34N 57°10' E 008°14'9915.9
2015-May-23 23:20N 55°46' E 006°39'1216.1
2015-May-23 22:34N 55°36' E 006°27'1816.0
2015-May-23 21:25N 55°20' E 006°11'6315.8
2015-May-23 17:25N 54°26' E 005°15'1315.4
2015-May-23 16:33N 54°14' E 005°03'1515.3
2015-May-23 15:33N 53°60' E 004°55'1615.6
2015-May-23 14:33N 53°45' E 004°51'1515.3
2015-May-23 13:34N 53°30' E 004°45'1615.5
2015-May-23 12:33N 53°15' E 004°35'1515.4
2015-May-23 11:33N 53°02' E 004°22'1615.6
2015-May-23 10:34N 52°48' E 004°10'1615.8
2015-May-23 09:34N 52°34' E 003°58'1615.7
2015-May-23 08:33N 52°19' E 003°52'1616.0
2015-May-23 07:33N 52°03' E 003°54'8 7.9
2015-May-23 06:34N 51°58' E 004°03'1 1.2
2015-May-23 05:31N 51°59' E 004°02'0 0.0
2015-May-23 04:31N 51°59' E 004°02'0 0.0
2015-May-23 03:31N 51°59' E 004°02'0 0.0
2015-May-23 02:31N 51°59' E 004°02'0 0.0
2015-May-23 01:31N 51°59' E 004°02'0 0.0
2015-May-23 00:31N 51°59' E 004°02'0 0.0
2015-May-22 23:31N 51°59' E 004°02'0 0.0
2015-May-22 22:31N 51°59' E 004°02'2 1.7
2015-May-22 21:32N 51°58' E 004°04'0 0.0
2015-May-22 20:32N 51°58' E 004°04'0 0.0
2015-May-22 19:33N 51°58' E 004°04'0 0.0
2015-May-22 18:33N 51°58' E 004°04'0 0.0
2015-May-22 17:33N 51°58' E 004°04'0 0.0
2015-May-22 16:33N 51°58' E 004°04'0 0.0
2015-May-22 15:31N 51°58' E 004°04'0 0.0
2015-May-22 14:31N 51°58' E 004°04'0 0.0
2015-May-22 13:31N 51°58' E 004°04'0 0.0
2015-May-22 12:31N 51°58' E 004°04'0 0.0
2015-May-22 11:31N 51°58' E 004°04'1 0.6
2015-May-22 10:33N 51°58' E 004°05'1010.0
2015-May-22 09:33N 51°60' E 003°49'4 4.0
2015-May-22 08:33N 51°57' E 003°44'0 0.1
2015-May-22 07:33N 51°57' E 003°44'0 0.0
2015-May-22 06:33N 51°57' E 003°44'7 7.0
2015-May-22 05:33N 51°57' E 003°33'1212.2
2015-May-22 04:33N 51°48' E 003°18'1414.3
2015-May-22 03:33N 51°35' E 003°10'1111.2
2015-May-22 02:33N 51°24' E 003°07'1312.9
2015-May-22 01:34N 51°25' E 003°28'9 9.0
2015-May-22 00:34N 51°25' E 003°42'10 9.7
2015-May-21 23:33N 51°24' E 003°57'10 9.6
2015-May-21 22:33N 51°23' E 004°13'4 3.9
2015-May-21 21:33N 51°21' E 004°17'1 1.4
2015-May-21 20:33N 51°20' E 004°19'1 1.0
2015-May-21 19:32N 51°20' E 004°20'0 0.0
2015-May-21 18:33N 51°20' E 004°20'0 0.0
2015-May-21 17:33N 51°20' E 004°20'0 0.0
2015-May-21 16:33N 51°20' E 004°20'0 0.0
2015-May-21 15:33N 51°20' E 004°20'0 0.0
2015-May-21 14:33N 51°20' E 004°20'0 0.0
2015-May-21 13:33N 51°20' E 004°20'0 0.0
2015-May-21 12:33N 51°20' E 004°20'0 0.0
2015-May-21 11:33N 51°20' E 004°20'0 0.0
2015-May-21 10:33N 51°20' E 004°20'0 0.0
2015-May-21 09:33N 51°20' E 004°20'0 0.0
2015-May-21 08:33N 51°20' E 004°20'0 0.0
2015-May-21 07:33N 51°20' E 004°20'0 0.0
2015-May-21 06:33N 51°20' E 004°20'0 0.0
2015-May-21 05:33N 51°20' E 004°20'0 0.0
2015-May-21 04:33N 51°20' E 004°20'0 0.0
2015-May-21 03:33N 51°20' E 004°20'0 0.0
2015-May-21 02:33N 51°20' E 004°20'0 0.0
2015-May-21 01:33N 51°20' E 004°20'0 0.0
2015-May-21 00:33N 51°20' E 004°20'0 0.0
2015-May-20 23:33N 51°20' E 004°20'0 0.0
2015-May-20 22:33N 51°20' E 004°20'2 2.2
2015-May-20 21:33N 51°21' E 004°17'0 0.2
2015-May-20 20:34N 51°21' E 004°17'4 4.4
2015-May-20 19:34N 51°24' E 004°12'9 8.9
2015-May-20 18:33N 51°25' E 003°58'10 9.5
2015-May-20 17:34N 51°24' E 003°43'7 7.0
2015-May-20 16:34N 51°25' E 003°31'1211.9
2015-May-20 15:33N 51°24' E 003°12'1716.9
2015-May-20 14:34N 51°22' E 002°46'8 8.1
2015-May-20 13:34N 51°22' E 002°33'8 7.8
2015-May-20 12:34N 51°19' E 002°21'7 6.6
2015-May-20 11:33N 51°16' E 002°12'1616.0
2015-May-20 10:33N 51°09' E 001°49'1514.5
2015-May-20 09:33N 50°58' E 001°33'1413.8
2015-May-20 08:33N 50°46' E 001°23'  
2015-May-17 20:30N 39°23' W 009°50'20452155.9
2015-May-17 19:33N 39°08' W 053°51'20522055.7
2015-May-17 18:33N 38°53' W 009°51'1514.8
2015-May-17 17:33N 38°38' W 009°50'1515.4
2015-May-17 16:33N 38°23' W 009°50'1414.4
2015-May-17 15:33N 38°08' W 009°52'1111.3
2015-May-17 14:32N 37°57' W 009°52'1110.9
2015-May-17 13:33N 37°46' W 009°53'1010.4
2015-May-17 12:33N 37°36' W 009°53'1110.9
2015-May-17 11:33N 37°25' W 009°54'1110.8
2015-May-17 10:33N 37°14' W 009°54'1110.9
2015-May-17 09:33N 37°03' W 009°55'1211.4
2015-May-17 08:33N 36°52' W 009°56'1615.6
2015-May-17 07:32N 36°36' W 009°56'1717.1
2015-May-17 06:33N 36°19' W 009°57'1615.9
2015-May-17 05:33N 36°04' W 009°58'1815.8
2015-May-17 04:26N 35°46' W 009°58'1415.7
2015-May-17 03:31N 35°31' W 009°59'  

Dump ship's entire track history